createdAt,value
2023-03-13T00:01:25.423Z,77.90
2023-03-13T00:03:57.351Z,77.80
2023-03-13T00:06:39.297Z,78.10
2023-03-13T00:09:11.163Z,77.90
2023-03-13T00:11:43.339Z,77.80
2023-03-13T00:14:13.891Z,77.80
2023-03-13T00:16:58.299Z,77.90
2023-03-13T00:19:31.628Z,77.90
2023-03-13T00:22:06.700Z,77.90
2023-03-13T00:24:48.998Z,77.80
2023-03-13T00:27:23.891Z,77.90
2023-03-13T00:30:04.902Z,78.00
2023-03-13T00:32:37.659Z,78.00
2023-03-13T00:35:17.255Z,77.90
2023-03-13T00:38:08.223Z,77.90
2023-03-13T00:40:48.063Z,78.00
2023-03-13T00:43:18.127Z,77.90
2023-03-13T00:46:09.885Z,77.90
2023-03-13T00:48:40.701Z,77.80
2023-03-13T00:51:14.902Z,77.80
2023-03-13T00:54:04.405Z,77.60
2023-03-13T00:56:44.994Z,77.80
2023-03-13T00:59:15.525Z,77.80
2023-03-13T01:01:46.199Z,77.70
2023-03-13T01:04:22.174Z,77.60
2023-03-13T01:07:08.556Z,77.70
2023-03-13T01:09:55.407Z,77.70
2023-03-13T01:12:26.100Z,77.50
2023-03-13T01:15:00.862Z,77.50
2023-03-13T01:17:34.319Z,77.50
2023-03-13T01:20:10.176Z,77.50
2023-03-13T01:22:48.166Z,77.40
2023-03-13T01:25:40.885Z,77.30
2023-03-13T01:28:16.970Z,77.40
2023-03-13T01:30:53.596Z,77.20
2023-03-13T01:33:28.055Z,77.20
2023-03-13T01:36:08.645Z,77.20
2023-03-13T01:38:39.675Z,77.40
2023-03-13T01:41:18.033Z,77.40
2023-03-13T01:43:49.133Z,77.30
2023-03-13T01:46:21.740Z,77.30
2023-03-13T01:49:16.524Z,77.20
2023-03-13T01:52:02.262Z,77.40
2023-03-13T01:54:44.631Z,77.30
2023-03-13T01:57:37.796Z,77.40
2023-03-13T02:00:14.140Z,77.30
2023-03-13T02:02:52.264Z,77.30
2023-03-13T02:05:26.691Z,77.20
2023-03-13T02:08:04.780Z,77.30
2023-03-13T02:10:40.883Z,77.20
2023-03-13T02:13:16.321Z,77.30
2023-03-13T02:15:54.639Z,77.30
2023-03-13T02:18:27.492Z,77.40
2023-03-13T02:21:11.541Z,77.30
2023-03-13T02:23:59.456Z,77.40
2023-03-13T02:26:36.789Z,77.20
2023-03-13T02:29:25.534Z,77.40
2023-03-13T02:32:00.244Z,77.40
2023-03-13T02:34:43.373Z,77.50
2023-03-13T02:37:17.811Z,77.50
2023-03-13T02:39:57.018Z,77.50
2023-03-13T02:42:34.203Z,77.50
2023-03-13T02:45:06.079Z,77.40
2023-03-13T02:47:46.793Z,77.40
2023-03-13T02:50:18.032Z,77.40
2023-03-13T02:52:54.034Z,77.20
2023-03-13T02:55:48.248Z,77.30
2023-03-13T02:58:31.763Z,77.30
2023-03-13T03:01:11.288Z,77.20
2023-03-13T03:03:44.232Z,77.30
2023-03-13T03:06:15.366Z,77.30
2023-03-13T03:08:47.521Z,77.30
2023-03-13T03:11:18.084Z,77.30
2023-03-13T03:14:02.386Z,77.30
2023-03-13T03:16:46.084Z,77.30
2023-03-13T03:19:27.288Z,77.30
2023-03-13T03:22:00.129Z,77.40
2023-03-13T03:24:29.390Z,77.50
2023-03-13T03:27:02.672Z,77.60
2023-03-13T03:29:48.036Z,77.70
2023-03-13T03:32:20.470Z,77.80
2023-03-13T03:35:00.607Z,77.80
2023-03-13T03:37:34.557Z,77.90
2023-03-13T03:40:08.210Z,77.90
2023-03-13T03:42:48.661Z,77.90
2023-03-13T03:45:26.798Z,78.00
2023-03-13T03:48:04.345Z,78.00
2023-03-13T03:50:37.482Z,78.10
2023-03-13T03:53:17.847Z,78.30
2023-03-13T03:55:57.393Z,78.30
2023-03-13T03:58:38.860Z,78.50
2023-03-13T04:01:40.473Z,78.50
2023-03-13T04:04:20.200Z,78.60
2023-03-13T04:06:57.954Z,78.70
2023-03-13T04:09:36.613Z,78.80
2023-03-13T04:12:16.936Z,78.90
2023-03-13T04:15:00.657Z,79.00
2023-03-13T04:17:48.943Z,79.00
2023-03-13T04:20:29.161Z,79.10
2023-03-13T04:23:04.466Z,79.10
2023-03-13T04:25:39.247Z,79.10
2023-03-13T04:28:15.582Z,79.10
2023-03-13T04:30:58.577Z,79.30
2023-03-13T04:33:45.723Z,79.50
2023-03-13T04:36:43.135Z,79.50
2023-03-13T04:39:42.199Z,79.60
2023-03-13T04:42:40.828Z,79.50
2023-03-13T04:45:39.898Z,79.50
2023-03-13T04:48:44.780Z,79.60
2023-03-13T04:51:37.509Z,79.50
2023-03-13T04:54:38.969Z,79.60
2023-03-13T04:57:36.339Z,79.80
2023-03-13T05:00:38.078Z,79.90
2023-03-13T05:03:33.190Z,80.00
2023-03-13T05:06:28.735Z,80.20
2023-03-13T05:09:31.991Z,80.20
2023-03-13T05:12:05.748Z,80.30
2023-03-13T05:14:55.897Z,80.80
2023-03-13T05:17:54.913Z,80.70
2023-03-13T05:20:36.711Z,81.30
2023-03-13T05:23:34.533Z,81.70
2023-03-13T05:26:34.976Z,81.50
2023-03-13T05:29:32.617Z,81.40
2023-03-13T05:32:22.371Z,81.40
2023-03-13T05:35:25.233Z,81.80
2023-03-13T05:38:22.428Z,81.70
2023-03-13T05:41:37.990Z,81.90
2023-03-13T05:44:39.121Z,82.30
2023-03-13T05:47:39.612Z,82.10
2023-03-13T05:50:27.748Z,82.10
2023-03-13T05:53:26.546Z,82.10
2023-03-13T05:56:16.017Z,82.10
2023-03-13T05:59:13.650Z,82.20
2023-03-13T06:02:02.653Z,82.30
2023-03-13T06:04:51.999Z,82.40
2023-03-13T06:07:30.110Z,82.50
2023-03-13T06:10:05.906Z,82.80
2023-03-13T06:12:38.286Z,82.70
2023-03-13T06:15:22.933Z,82.80
2023-03-13T06:18:00.580Z,82.80
2023-03-13T06:20:46.901Z,82.90
2023-03-13T06:23:18.866Z,83.10
2023-03-13T06:25:53.930Z,83.10
2023-03-13T06:28:25.544Z,83.70
2023-03-13T06:31:03.749Z,83.50
2023-03-13T06:33:37.681Z,83.40
2023-03-13T06:36:24.450Z,83.40
2023-03-13T06:39:01.244Z,83.40
2023-03-13T06:41:36.046Z,83.40
2023-03-13T06:44:11.844Z,83.40
2023-03-13T06:46:43.889Z,83.30
2023-03-13T06:49:16.602Z,83.50
2023-03-13T06:51:48.484Z,83.50
2023-03-13T06:54:19.234Z,83.50
2023-03-13T06:56:55.640Z,83.70
2023-03-13T06:59:34.236Z,83.70
2023-03-13T07:02:13.517Z,83.80
2023-03-13T07:04:57.369Z,83.90
2023-03-13T07:07:33.260Z,84.40
2023-03-13T07:10:10.618Z,84.10
2023-03-13T07:12:43.707Z,84.20
2023-03-13T07:15:23.865Z,84.20
2023-03-13T07:18:04.110Z,84.20
2023-03-13T07:20:35.938Z,84.10
2023-03-13T07:23:13.358Z,84.20
2023-03-13T07:25:48.715Z,84.30
2023-03-13T07:28:22.886Z,84.40
2023-03-13T07:31:00.415Z,84.40
2023-03-13T07:33:39.337Z,84.30
2023-03-13T07:36:18.886Z,84.30
2023-03-13T07:39:01.221Z,84.30
2023-03-13T07:41:39.058Z,84.30
2023-03-13T07:44:15.077Z,84.40
2023-03-13T07:46:50.548Z,84.60
2023-03-13T07:49:28.277Z,84.80
2023-03-13T07:52:06.470Z,84.90
2023-03-13T07:54:40.280Z,84.80
2023-03-13T07:57:18.675Z,85.00
2023-03-13T07:59:55.629Z,84.90
2023-03-13T08:02:33.251Z,85.00
2023-03-13T08:05:09.282Z,85.00
2023-03-13T08:07:49.820Z,85.00
2023-03-13T08:10:28.716Z,84.90
2023-03-13T08:13:09.022Z,84.70
2023-03-13T08:15:48.539Z,84.90
2023-03-13T08:18:20.671Z,85.00
2023-03-13T08:20:57.275Z,85.20
2023-03-13T08:23:36.103Z,85.20
2023-03-13T08:26:07.495Z,85.20
2023-03-13T08:28:38.763Z,85.20
2023-03-13T08:31:15.081Z,85.20
2023-03-13T08:33:51.977Z,85.20
2023-03-13T08:36:27.979Z,85.30
2023-03-13T08:39:05.669Z,85.40
2023-03-13T08:41:48.452Z,85.40
2023-03-13T08:44:24.094Z,85.50
2023-03-13T08:46:58.441Z,85.50
2023-03-13T08:49:30.867Z,85.60
2023-03-13T08:52:09.576Z,85.60
2023-03-13T08:54:42.665Z,85.60
2023-03-13T08:57:10.545Z,85.60
2023-03-13T08:59:42.483Z,85.40
2023-03-13T09:02:22.185Z,85.50
2023-03-13T09:04:56.278Z,85.70
2023-03-13T09:07:28.429Z,85.60
2023-03-13T09:09:59.877Z,85.60
2023-03-13T09:12:31.736Z,85.70
2023-03-13T09:15:15.544Z,85.70
2023-03-13T09:17:51.396Z,85.80
2023-03-13T09:20:49.011Z,85.80
2023-03-13T09:23:29.838Z,85.90
2023-03-13T09:26:01.907Z,85.90
2023-03-13T09:28:39.208Z,85.70
2023-03-13T09:31:21.019Z,85.70
2023-03-13T09:33:50.734Z,85.70
2023-03-13T09:36:24.365Z,85.80
2023-03-13T09:39:13.211Z,85.60
2023-03-13T09:41:54.515Z,85.70
2023-03-13T09:44:31.070Z,85.60
2023-03-13T09:47:11.702Z,85.60
2023-03-13T09:49:46.946Z,85.30
2023-03-13T09:52:18.578Z,85.30
2023-03-13T09:55:04.429Z,85.30
2023-03-13T09:57:42.603Z,85.30
2023-03-13T10:00:17.946Z,85.20
2023-03-13T10:02:59.674Z,85.20
2023-03-13T10:05:31.391Z,85.20
2023-03-13T10:08:15.458Z,85.20
2023-03-13T10:11:01.521Z,85.30
2023-03-13T10:13:39.251Z,84.90
2023-03-13T10:16:19.506Z,85.00
2023-03-13T10:18:54.881Z,85.10
2023-03-13T10:21:36.385Z,85.10
2023-03-13T10:24:19.933Z,84.70
2023-03-13T10:26:51.625Z,84.90
2023-03-13T10:29:31.988Z,85.00
2023-03-13T10:32:03.610Z,84.80
2023-03-13T10:34:55.342Z,84.70
2023-03-13T10:37:32.534Z,84.80
2023-03-13T10:40:15.128Z,85.10
2023-03-13T10:42:57.750Z,85.20
2023-03-13T10:45:39.611Z,85.20
2023-03-13T10:48:19.526Z,85.30
2023-03-13T10:50:51.156Z,85.20
2023-03-13T10:53:34.297Z,85.20
2023-03-13T10:56:18.872Z,85.20
2023-03-13T10:58:54.233Z,85.00
2023-03-13T11:01:35.430Z,84.90
2023-03-13T11:04:40.351Z,84.80
2023-03-13T11:07:19.632Z,84.70
2023-03-13T11:10:04.052Z,84.60
2023-03-13T11:12:36.716Z,84.50
2023-03-13T11:15:25.911Z,84.20
2023-03-13T11:18:07.805Z,83.90
2023-03-13T11:20:43.116Z,83.60
2023-03-13T11:23:24.816Z,83.40
2023-03-13T11:26:07.579Z,83.40
2023-03-13T11:28:57.629Z,83.50
2023-03-13T11:31:35.992Z,83.30
2023-03-13T11:34:19.650Z,83.20
2023-03-13T11:37:04.743Z,83.10
2023-03-13T11:39:55.726Z,83.00
2023-03-13T11:42:53.170Z,83.00
2023-03-13T11:45:40.667Z,82.90
2023-03-13T11:48:25.382Z,82.70
2023-03-13T11:51:06.643Z,82.70
2023-03-13T11:53:50.510Z,82.80
2023-03-13T11:56:30.685Z,83.00
2023-03-13T11:59:21.786Z,82.70
2023-03-13T12:01:58.069Z,82.40
2023-03-13T12:04:45.215Z,82.10
2023-03-13T12:07:25.991Z,82.10
2023-03-13T12:10:02.605Z,82.20
2023-03-13T12:12:43.446Z,82.20
2023-03-13T12:15:32.965Z,82.10
2023-03-13T12:18:08.044Z,81.80
2023-03-13T12:20:57.755Z,81.60
2023-03-13T12:23:39.276Z,81.20
2023-03-13T12:26:21.199Z,81.30
2023-03-13T12:29:10.156Z,81.20
2023-03-13T12:31:49.957Z,81.10
2023-03-13T12:34:28.639Z,81.00
2023-03-13T12:37:42.438Z,80.80
2023-03-13T12:40:38.096Z,80.90
2023-03-13T12:43:19.825Z,81.00
2023-03-13T12:46:09.136Z,81.00
2023-03-13T12:48:51.090Z,80.70
2023-03-13T12:51:36.039Z,80.80
2023-03-13T12:54:42.217Z,80.60
2023-03-13T12:57:40.181Z,80.20
2023-03-13T13:00:30.082Z,80.10
2023-03-13T13:03:19.712Z,79.80
2023-03-13T13:06:12.932Z,79.70
2023-03-13T13:08:44.838Z,79.60
2023-03-13T13:11:42.045Z,79.50
2023-03-13T13:14:58.323Z,79.30
2023-03-13T13:17:52.827Z,79.00
2023-03-13T13:20:49.630Z,78.90
2023-03-13T13:23:35.404Z,78.90
2023-03-13T13:26:52.022Z,78.60
2023-03-13T13:29:59.964Z,78.50
2023-03-13T13:32:50.745Z,78.20
2023-03-13T13:36:16.489Z,78.20
2023-03-13T13:38:47.112Z,78.00
2023-03-13T13:41:39.716Z,78.10
2023-03-13T13:44:30.504Z,78.00
2023-03-13T13:47:08.373Z,77.80
2023-03-13T13:49:57.888Z,77.90
2023-03-13T13:52:43.597Z,77.80
2023-03-13T13:55:47.661Z,77.90
2023-03-13T13:58:26.106Z,77.70
2023-03-13T14:01:02.296Z,77.60
2023-03-13T14:03:44.251Z,77.60
2023-03-13T14:06:25.071Z,77.40
2023-03-13T14:09:00.482Z,77.20
2023-03-13T14:11:42.062Z,77.20
2023-03-13T14:14:17.217Z,77.10
2023-03-13T14:17:01.401Z,77.10
2023-03-13T14:19:51.739Z,77.20
2023-03-13T14:22:28.322Z,77.30
2023-03-13T14:25:00.629Z,77.20
2023-03-13T14:27:32.304Z,77.10
2023-03-13T14:30:05.021Z,76.90
2023-03-13T14:32:38.037Z,76.90
2023-03-13T14:35:21.896Z,77.00
2023-03-13T14:38:02.302Z,76.90
2023-03-13T14:40:40.954Z,76.70
2023-03-13T14:43:27.065Z,76.30
2023-03-13T14:46:03.537Z,76.20
2023-03-13T14:48:39.746Z,76.20
2023-03-13T14:51:27.741Z,76.10
2023-03-13T14:54:03.304Z,75.70
2023-03-13T14:56:45.293Z,75.80
2023-03-13T14:59:25.743Z,75.80
2023-03-13T15:02:07.255Z,75.90
2023-03-13T15:04:58.767Z,75.90
2023-03-13T15:07:44.608Z,75.90
2023-03-13T15:10:28.052Z,75.80
2023-03-13T15:13:01.988Z,75.80
2023-03-13T15:15:39.322Z,75.70
2023-03-13T15:18:20.704Z,75.50
2023-03-13T15:21:00.530Z,75.20
2023-03-13T15:23:35.082Z,75.30
2023-03-13T15:26:13.949Z,75.50
2023-03-13T15:28:49.714Z,75.30
2023-03-13T15:31:31.463Z,75.20
2023-03-13T15:34:06.346Z,75.10
2023-03-13T15:36:37.041Z,75.30
2023-03-13T15:39:22.563Z,75.20
2023-03-13T15:42:00.756Z,75.10
2023-03-13T15:44:34.961Z,75.10
2023-03-13T15:47:14.833Z,75.10
2023-03-13T15:49:55.106Z,75.10
2023-03-13T15:52:32.209Z,74.90
2023-03-13T15:55:05.630Z,74.80
2023-03-13T15:57:36.607Z,74.80
2023-03-13T16:02:55.335Z,74.70
2023-03-13T16:05:29.562Z,74.60
2023-03-13T16:08:04.305Z,74.50
2023-03-13T16:10:39.529Z,74.30
2023-03-13T16:13:15.070Z,74.10
2023-03-13T16:15:47.764Z,74.20
2023-03-13T16:18:25.865Z,74.20
2023-03-13T16:21:01.039Z,74.00
2023-03-13T16:23:32.693Z,74.10
2023-03-13T16:26:23.014Z,74.10
2023-03-13T16:28:57.389Z,74.00
2023-03-13T16:31:32.286Z,74.00
2023-03-13T16:34:10.006Z,73.90
2023-03-13T16:36:47.256Z,73.90
2023-03-13T16:39:20.623Z,73.70
2023-03-13T16:41:59.482Z,73.70
2023-03-13T16:44:33.718Z,73.60
2023-03-13T16:47:06.529Z,73.20
2023-03-13T16:49:47.445Z,72.20
2023-03-13T16:52:27.477Z,70.90
2023-03-13T16:54:59.743Z,71.80
2023-03-13T16:57:38.808Z,71.90
2023-03-13T17:00:16.973Z,72.10
2023-03-13T17:02:48.209Z,72.40
2023-03-13T17:05:24.419Z,72.70
2023-03-13T17:07:55.432Z,73.00
2023-03-13T17:10:29.973Z,73.20
2023-03-13T17:13:00.563Z,73.40
2023-03-13T17:15:33.059Z,73.70
2023-03-13T17:18:01.165Z,74.00
2023-03-13T17:20:31.300Z,74.20
2023-03-13T17:23:01.030Z,74.50
2023-03-13T17:25:28.996Z,74.60
2023-03-13T17:27:56.850Z,74.80
2023-03-13T17:30:27.886Z,75.00
2023-03-13T17:32:56.091Z,75.30
2023-03-13T17:35:28.281Z,75.50
2023-03-13T17:38:02.090Z,75.70
2023-03-13T17:40:31.262Z,75.80
2023-03-13T17:42:59.219Z,76.00
2023-03-13T17:45:30.433Z,76.10
2023-03-13T17:48:00.904Z,76.20
2023-03-13T17:50:34.645Z,76.30
2023-03-13T17:53:02.551Z,76.50
2023-03-13T17:55:30.440Z,76.70
2023-03-13T17:57:58.438Z,76.80
2023-03-13T18:00:30.475Z,77.10
2023-03-13T18:03:02.528Z,77.20
2023-03-13T18:05:38.671Z,77.30
2023-03-13T18:08:06.644Z,77.50
2023-03-13T18:10:34.635Z,77.60
2023-03-13T18:13:02.505Z,77.60
2023-03-13T18:15:45.589Z,77.70
2023-03-13T18:18:41.599Z,77.90
2023-03-13T18:21:10.898Z,77.90
2023-03-13T18:23:41.565Z,78.10
2023-03-13T18:26:33.230Z,78.20
2023-03-13T18:29:13.911Z,78.30
2023-03-13T18:31:44.239Z,78.40
2023-03-13T18:34:22.591Z,78.50
2023-03-13T18:37:06.047Z,78.50
2023-03-13T18:39:39.856Z,78.60
2023-03-13T18:42:14.428Z,78.80
2023-03-13T18:44:42.854Z,78.90
2023-03-13T18:47:23.265Z,78.90
2023-03-13T18:49:54.469Z,79.20
2023-03-13T18:52:35.249Z,79.30
2023-03-13T18:55:10.517Z,79.40
2023-03-13T18:57:42.045Z,79.50
2023-03-13T19:04:42.094Z,79.70
2023-03-13T19:07:23.601Z,79.90
2023-03-13T19:09:55.022Z,80.00
2023-03-13T19:12:28.667Z,80.00
2023-03-13T19:15:03.533Z,80.10
2023-03-13T19:17:34.889Z,80.20
2023-03-13T19:20:19.868Z,80.30
2023-03-13T19:22:55.956Z,80.40
2023-03-13T19:25:27.618Z,80.40
2023-03-13T19:28:01.239Z,80.50
2023-03-13T19:30:35.297Z,80.40
2023-03-13T19:33:04.637Z,80.50
2023-03-13T19:35:35.973Z,80.60
2023-03-13T19:38:07.239Z,80.70
2023-03-13T19:40:37.292Z,80.70
2023-03-13T19:43:06.139Z,80.80
2023-03-13T19:45:50.245Z,80.90
2023-03-13T19:48:21.559Z,81.00
2023-03-13T19:50:58.802Z,81.00
2023-03-13T19:53:28.770Z,81.00
2023-03-13T19:56:03.966Z,81.20
2023-03-13T19:58:44.309Z,81.30
2023-03-13T20:01:26.130Z,81.30
2023-03-13T20:04:01.348Z,81.40
2023-03-13T20:06:41.603Z,81.40
2023-03-13T20:09:16.787Z,81.70
2023-03-13T20:11:48.589Z,81.80
2023-03-13T20:14:19.641Z,82.00
2023-03-13T20:16:51.311Z,82.00
2023-03-13T20:19:23.942Z,82.00
2023-03-13T20:22:01.853Z,82.10
2023-03-13T20:24:34.695Z,82.00
2023-03-13T20:27:06.601Z,81.90
2023-03-13T20:29:42.980Z,81.80
2023-03-13T20:32:13.906Z,81.90
2023-03-13T20:34:44.558Z,81.90
2023-03-13T20:37:17.131Z,81.80
2023-03-13T20:39:48.098Z,81.80
2023-03-13T20:42:23.736Z,81.80
2023-03-13T20:44:55.568Z,81.80
2023-03-13T20:47:29.922Z,81.90
2023-03-13T20:50:02.331Z,82.10
2023-03-13T20:52:35.774Z,82.00
2023-03-13T20:55:11.820Z,82.00
2023-03-13T20:57:43.029Z,81.90
2023-03-13T21:00:13.412Z,82.00
2023-03-13T21:02:45.960Z,82.00
2023-03-13T21:05:20.639Z,82.20
2023-03-13T21:08:11.636Z,82.20
2023-03-13T21:10:42.709Z,82.20
2023-03-13T21:13:17.583Z,82.30
2023-03-13T21:15:48.056Z,82.30
2023-03-13T21:18:21.968Z,82.20
2023-03-13T21:20:59.350Z,82.00
2023-03-13T21:23:32.533Z,81.90
2023-03-13T21:26:15.673Z,82.20
2023-03-13T21:28:55.175Z,82.20
2023-03-13T21:31:26.421Z,82.30
2023-03-13T21:34:01.336Z,82.30
2023-03-13T21:36:36.257Z,82.30
2023-03-13T21:39:14.450Z,82.40
2023-03-13T21:41:45.364Z,82.30
2023-03-13T21:44:18.503Z,82.30
2023-03-13T21:46:50.102Z,82.40
2023-03-13T21:49:23.014Z,82.50
2023-03-13T21:52:08.153Z,82.40
2023-03-13T21:54:41.353Z,82.30
2023-03-13T21:57:13.660Z,82.30
2023-03-13T21:59:54.545Z,82.20
2023-03-13T22:02:32.029Z,82.00
2023-03-13T22:05:07.177Z,82.20
2023-03-13T22:07:44.691Z,82.60
2023-03-13T22:10:24.696Z,82.40
2023-03-13T22:13:00.992Z,82.60
2023-03-13T22:15:32.573Z,82.60
2023-03-13T22:18:10.384Z,82.30
2023-03-13T22:20:47.532Z,82.50
2023-03-13T22:23:22.924Z,82.50
2023-03-13T22:26:00.550Z,82.60
2023-03-13T22:28:30.652Z,82.50
2023-03-13T22:31:07.233Z,82.60
2023-03-13T22:33:40.619Z,82.60
2023-03-13T22:36:28.427Z,82.60
2023-03-13T22:39:04.337Z,82.50
2023-03-13T22:41:44.596Z,82.50
2023-03-13T22:44:23.560Z,82.40
2023-03-13T22:47:00.898Z,82.30
2023-03-13T22:49:44.671Z,82.20
2023-03-13T22:52:19.921Z,82.10
2023-03-13T22:54:53.112Z,82.10
2023-03-13T22:57:26.358Z,82.10
2023-03-13T23:00:03.778Z,82.00
2023-03-13T23:02:44.595Z,82.10
2023-03-13T23:05:16.398Z,82.10
2023-03-13T23:07:53.492Z,81.90
2023-03-13T23:10:24.156Z,81.90
2023-03-13T23:13:04.495Z,81.90
2023-03-13T23:16:01.746Z,81.80
2023-03-13T23:18:36.694Z,81.80
2023-03-13T23:21:17.172Z,81.70
2023-03-13T23:23:53.430Z,81.60
2023-03-13T23:26:29.188Z,81.70
2023-03-13T23:29:16.612Z,81.80
2023-03-13T23:31:50.662Z,81.80
2023-03-13T23:34:34.325Z,81.90
2023-03-13T23:37:06.958Z,81.90
2023-03-13T23:39:37.826Z,81.90
2023-03-13T23:42:08.641Z,81.80
2023-03-13T23:44:42.807Z,81.60
2023-03-13T23:47:16.144Z,81.50
2023-03-13T23:49:50.652Z,81.50
2023-03-13T23:52:27.707Z,81.60
2023-03-13T23:54:59.295Z,81.60
2023-03-13T23:57:40.434Z,81.50
